createdAt,value
2023-01-15T00:01:39.084Z,7.17
2023-01-15T00:08:04.607Z,7.20
2023-01-15T00:14:31.552Z,7.17
2023-01-15T00:20:36.620Z,7.18
2023-01-15T00:26:51.433Z,7.25
2023-01-15T00:33:00.700Z,7.32
2023-01-15T00:45:09.958Z,7.38
2023-01-15T00:51:42.674Z,7.39
2023-01-15T00:57:54.770Z,7.43
2023-01-15T01:03:48.811Z,7.50
2023-01-15T01:09:56.451Z,7.55
2023-01-15T01:16:04.596Z,7.51
2023-01-15T01:22:31.087Z,7.52
2023-01-15T01:52:53.794Z,7.79
2023-01-15T01:59:03.793Z,7.94
2023-01-15T02:07:25.231Z,8.04
2023-01-15T02:54:03.659Z,8.26
2023-01-15T03:46:55.111Z,8.43
2023-01-15T03:53:14.724Z,8.49
2023-01-15T03:59:57.033Z,8.56
2023-01-15T04:41:23.337Z,8.86
2023-01-15T04:48:24.715Z,8.93
2023-01-15T04:59:01.699Z,8.94
2023-01-15T05:04:01.379Z,9.00
2023-01-15T06:26:54.179Z,9.29
2023-01-15T06:32:29.714Z,9.35
2023-01-15T06:38:54.638Z,9.36
2023-01-15T06:52:14.021Z,9.37
2023-01-15T07:05:33.388Z,9.37
2023-01-15T07:12:01.218Z,9.39
2023-01-15T08:47:31.005Z,10.22
2023-01-15T08:53:34.986Z,10.31
2023-01-15T08:59:32.501Z,10.34
2023-01-15T09:19:20.079Z,10.47
2023-01-15T09:25:05.225Z,10.48
2023-01-15T09:31:16.224Z,10.48
2023-01-15T09:37:31.040Z,10.53
2023-01-15T09:44:15.672Z,10.52
2023-01-15T09:51:13.608Z,10.55
2023-01-15T10:03:45.416Z,10.66
2023-01-15T10:09:52.428Z,10.69
2023-01-15T10:16:21.287Z,10.76
2023-01-15T10:22:37.807Z,10.79
2023-01-15T10:28:58.156Z,10.90
2023-01-15T10:35:05.249Z,10.98
2023-01-15T10:41:22.607Z,11.04
2023-01-15T10:47:32.752Z,11.11
2023-01-15T10:56:37.880Z,11.24
2023-01-15T11:02:18.054Z,11.23
2023-01-15T11:09:07.298Z,11.25
2023-01-15T11:22:05.912Z,11.25
2023-01-15T11:28:10.196Z,11.18
2023-01-15T11:34:36.945Z,11.17
2023-01-15T11:41:13.878Z,11.17
2023-01-15T11:47:49.314Z,11.12
2023-01-15T11:54:18.221Z,11.13
2023-01-15T12:07:03.159Z,11.11
2023-01-15T12:14:00.247Z,11.02
2023-01-15T12:19:53.955Z,10.90
2023-01-15T12:26:12.198Z,10.82
2023-01-15T12:31:52.064Z,10.73
2023-01-15T12:38:06.846Z,10.63
2023-01-15T12:43:46.633Z,10.46
2023-01-15T12:49:40.045Z,10.37
2023-01-15T12:56:01.807Z,10.23
2023-01-15T13:02:24.250Z,10.10
2023-01-15T13:09:21.068Z,10.04
2023-01-15T13:15:35.271Z,10.03
2023-01-15T13:21:03.349Z,9.97
2023-01-15T13:27:51.231Z,9.98
2023-01-15T13:34:27.748Z,9.95
2023-01-15T13:40:05.585Z,9.94
2023-01-15T13:46:13.343Z,9.95
2023-01-15T13:56:58.025Z,9.87
2023-01-15T14:03:29.730Z,9.84
2023-01-15T14:09:27.555Z,9.75
2023-01-15T14:16:13.544Z,9.79
2023-01-15T14:22:17.359Z,9.96
2023-01-15T14:28:06.514Z,9.99
2023-01-15T14:34:28.535Z,9.97
2023-01-15T14:40:15.487Z,9.96
2023-01-15T14:46:26.109Z,9.99
2023-01-15T14:56:37.903Z,10.01
2023-01-15T15:02:32.941Z,9.98
2023-01-15T15:07:44.337Z,9.97
2023-01-15T15:14:23.791Z,9.97
2023-01-15T15:20:32.616Z,10.02
2023-01-15T15:26:41.543Z,10.06
2023-01-15T15:32:43.039Z,10.00
2023-01-15T15:39:07.736Z,9.93
2023-01-15T15:45:24.126Z,9.86
2023-01-15T15:51:14.768Z,9.84
2023-01-15T15:58:25.948Z,9.83
2023-01-15T16:03:34.779Z,9.83
2023-01-15T16:09:05.441Z,9.87
2023-01-15T16:14:38.312Z,9.94
2023-01-15T16:20:18.161Z,10.03
2023-01-15T16:25:38.155Z,10.00
2023-01-15T16:31:39.693Z,9.98
2023-01-15T16:37:12.563Z,10.00
2023-01-15T16:43:29.954Z,9.98
2023-01-15T16:55:03.508Z,9.98
2023-01-15T17:00:56.844Z,9.99
2023-01-15T17:06:57.188Z,9.98
2023-01-15T17:13:22.030Z,9.94
2023-01-15T17:18:37.948Z,9.81
2023-01-15T17:25:20.339Z,9.72
2023-01-15T17:39:02.723Z,9.65
2023-01-15T18:00:56.382Z,9.29
2023-01-15T18:20:05.085Z,9.13
2023-01-15T18:26:27.378Z,9.00
2023-01-15T18:33:51.792Z,8.74
2023-01-15T18:47:52.845Z,8.68
2023-01-15T19:02:04.588Z,8.59
2023-01-15T19:08:16.511Z,8.58
2023-01-15T19:14:42.037Z,8.48
2023-01-15T19:35:38.056Z,8.12
2023-01-15T19:41:26.547Z,7.98
2023-01-15T19:48:09.914Z,7.97
2023-01-15T20:02:45.431Z,7.99
2023-01-15T20:08:34.187Z,7.92
2023-01-15T20:14:52.669Z,7.92
2023-01-15T20:35:19.484Z,7.63
2023-01-15T20:41:53.598Z,7.72
2023-01-15T20:56:46.664Z,7.81
2023-01-15T21:02:57.630Z,7.74
2023-01-15T21:09:05.774Z,7.69
2023-01-15T21:15:33.382Z,7.65
2023-01-15T21:21:41.647Z,7.58
2023-01-15T21:27:35.223Z,7.65
2023-01-15T21:33:32.643Z,7.70
2023-01-15T21:39:57.042Z,7.75
2023-01-15T21:45:44.179Z,7.77
2023-01-15T21:55:45.271Z,7.81
2023-01-15T22:00:57.325Z,7.80
2023-01-15T22:06:52.919Z,7.74
2023-01-15T22:12:56.957Z,7.72
2023-01-15T22:19:21.136Z,7.66
2023-01-15T22:24:52.943Z,7.70
2023-01-15T22:31:07.589Z,7.75
2023-01-15T22:37:04.503Z,7.72
2023-01-15T22:42:59.595Z,7.67
2023-01-15T22:48:58.040Z,7.59
2023-01-15T22:55:16.268Z,7.52
2023-01-15T23:01:16.510Z,7.48
2023-01-15T23:07:02.446Z,7.42
2023-01-15T23:13:25.540Z,7.39
2023-01-15T23:19:29.742Z,7.38
2023-01-15T23:25:23.966Z,7.38
2023-01-15T23:31:30.361Z,7.45
2023-01-15T23:37:37.609Z,7.52
2023-01-15T23:43:50.030Z,7.58
2023-01-15T23:49:17.925Z,7.55
2023-01-15T23:55:24.991Z,7.54
